Archival Weather

Abadan

Abadan, Iran (OIAA)

Report from: Monday, July 18, 2022 2:00 AM UTC
Current time: Tuesday, June 18, 2024 11:03 AM UTC

Current weather – Weather history – Daily summaries
Weather forecast

Temperature34.0°C (93.2°F)
Heat index31.8°C (89.2°F)
Dew point6.0°C (42.8°F)
Winds 6 kts (3.1 m/s, 6.9 mph) North-Northwest (330°)
Clouds Sky clear
Altimeter29.41 in.Hg (996 mB)
Relative humidity18 %
Density altitude2,878 ft. (877 m)
Remarks Ceiling and visibility OK
Flight conditions Visual Meteorological Conditions
Raw dataOIAA 180200Z 33006KT CAVOK 34/06 Q0996
An error has occurred. This application may no longer respond until reloaded. Reload 🗙